createdAt,value
2022-12-01T00:00:18.944Z,7.75
2022-12-01T00:03:21.959Z,9.50
2022-12-01T00:06:24.312Z,8.32
2022-12-01T00:09:44.768Z,9.25
2022-12-01T00:12:46.923Z,10.40
2022-12-01T00:15:49.124Z,7.82
2022-12-01T00:18:52.640Z,7.80
2022-12-01T00:21:54.771Z,10.73
2022-12-01T00:24:56.908Z,9.93
2022-12-01T00:27:59.215Z,10.05
2022-12-01T00:31:01.367Z,8.40
2022-12-01T00:34:06.894Z,9.75
2022-12-01T00:37:13.062Z,7.50
2022-12-01T00:40:15.275Z,7.82
2022-12-01T00:43:17.600Z,8.07
2022-12-01T00:46:20.234Z,8.27
2022-12-01T00:49:22.514Z,6.82
2022-12-01T00:52:24.665Z,5.70
2022-12-01T00:55:26.895Z,5.30
2022-12-01T00:58:29.034Z,4.93
2022-12-01T01:01:31.291Z,5.57
2022-12-01T01:04:35.150Z,5.05
2022-12-01T01:07:37.353Z,5.80
2022-12-01T01:10:40.626Z,5.30
2022-12-01T01:13:42.780Z,6.30
2022-12-01T01:16:44.939Z,5.37
2022-12-01T01:19:47.455Z,5.20
2022-12-01T01:22:49.919Z,5.22
2022-12-01T01:25:52.176Z,4.60
2022-12-01T01:28:56.861Z,8.02
2022-12-01T01:31:59.073Z,6.82
2022-12-01T01:35:01.221Z,5.78
2022-12-01T01:38:03.523Z,4.80
2022-12-01T01:41:06.624Z,3.20
2022-12-01T01:44:46.777Z,4.65
2022-12-01T01:47:50.410Z,4.78
2022-12-01T01:50:52.706Z,4.45
2022-12-01T01:53:58.613Z,4.43
2022-12-01T01:57:01.049Z,4.95
2022-12-01T02:00:08.014Z,3.90
2022-12-01T02:03:13.361Z,5.07
2022-12-01T02:06:15.510Z,4.60
2022-12-01T02:09:17.699Z,4.32
2022-12-01T02:12:44.220Z,4.80
2022-12-01T02:15:46.302Z,5.12
2022-12-01T02:19:09.346Z,4.65
2022-12-01T02:22:40.883Z,5.28
2022-12-01T02:25:50.657Z,4.78
2022-12-01T02:29:04.893Z,4.62
2022-12-01T02:32:10.152Z,5.80
2022-12-01T02:35:38.246Z,5.05
2022-12-01T02:38:43.428Z,5.00
2022-12-01T02:41:51.367Z,5.15
2022-12-01T02:44:53.986Z,5.00
2022-12-01T02:47:57.421Z,3.70
2022-12-01T02:51:21.948Z,4.45
2022-12-01T02:54:24.481Z,3.65
2022-12-01T02:57:26.711Z,5.82
2022-12-01T03:00:30.618Z,4.40
2022-12-01T03:03:45.872Z,4.15
2022-12-01T03:07:17.490Z,3.67
2022-12-01T03:10:27.709Z,2.55
2022-12-01T03:13:47.020Z,3.40
2022-12-01T03:16:53.563Z,3.40
2022-12-01T03:20:08.705Z,2.87
2022-12-01T03:23:20.534Z,3.45
2022-12-01T03:26:24.722Z,4.18
2022-12-01T03:29:48.086Z,4.78
2022-12-01T03:32:54.974Z,3.22
2022-12-01T03:36:08.043Z,5.28
2022-12-01T03:39:14.912Z,4.25
2022-12-01T03:42:22.836Z,3.75
2022-12-01T03:45:31.430Z,4.15
2022-12-01T03:48:34.164Z,5.07
2022-12-01T03:51:52.195Z,3.00
2022-12-01T03:55:01.325Z,4.82
2022-12-01T03:58:12.943Z,3.78
2022-12-01T04:01:15.214Z,3.47
2022-12-01T04:04:17.466Z,4.00
2022-12-01T04:07:21.273Z,4.07
2022-12-01T04:10:26.350Z,4.07
2022-12-01T04:13:28.481Z,4.15
2022-12-01T04:16:30.716Z,4.20
2022-12-01T04:19:32.927Z,5.50
2022-12-01T04:22:35.070Z,5.22
2022-12-01T04:25:37.225Z,5.72
2022-12-01T04:28:39.380Z,4.68
2022-12-01T04:31:41.698Z,6.12
2022-12-01T04:34:44.074Z,10.40
2022-12-01T04:37:46.253Z,8.68
2022-12-01T04:40:48.427Z,6.60
2022-12-01T04:43:53.571Z,5.97
2022-12-01T04:46:55.825Z,4.03
2022-12-01T04:49:58.016Z,4.55
2022-12-01T04:53:00.221Z,5.00
2022-12-01T04:56:02.595Z,5.53
2022-12-01T04:59:04.831Z,5.18
2022-12-01T05:02:07.744Z,5.30
2022-12-01T05:05:11.117Z,5.15
2022-12-01T05:08:13.322Z,7.57
2022-12-01T05:11:16.250Z,8.98
2022-12-01T05:14:18.422Z,7.87
2022-12-01T05:17:20.591Z,8.63
2022-12-01T05:20:43.339Z,7.70
2022-12-01T05:23:45.757Z,6.55
2022-12-01T05:26:48.099Z,7.65
2022-12-01T05:29:50.518Z,10.63
2022-12-01T05:32:53.133Z,8.38
2022-12-01T05:35:55.714Z,6.00
2022-12-01T05:38:57.849Z,11.68
2022-12-01T05:41:59.973Z,10.30
2022-12-01T05:45:02.199Z,11.43
2022-12-01T05:48:04.546Z,8.45
2022-12-01T05:51:11.231Z,9.50
2022-12-01T05:54:13.471Z,7.53
2022-12-01T05:57:15.648Z,6.37
2022-12-01T06:00:18.289Z,6.78
2022-12-01T06:03:20.436Z,6.45
2022-12-01T06:06:22.602Z,8.20
2022-12-01T06:09:25.245Z,20.65
2022-12-01T06:12:27.668Z,22.35
2022-12-01T06:15:29.892Z,9.82
2022-12-01T06:18:34.464Z,9.02
2022-12-01T06:21:36.602Z,8.70
2022-12-01T06:24:38.825Z,11.70
2022-12-01T06:27:41.059Z,12.05
2022-12-01T06:30:43.579Z,7.55
2022-12-01T06:33:45.712Z,9.20
2022-12-01T06:36:47.978Z,9.88
2022-12-01T06:39:50.350Z,6.72
2022-12-01T06:42:52.892Z,9.02
2022-12-01T06:46:00.896Z,8.23
2022-12-01T06:49:04.548Z,16.45
2022-12-01T06:52:06.810Z,17.25
2022-12-01T06:55:09.283Z,20.75
2022-12-01T06:58:11.675Z,13.77
2022-12-01T07:01:13.944Z,11.18
2022-12-01T07:04:16.221Z,10.05
2022-12-01T07:07:18.378Z,8.45
2022-12-01T07:10:20.520Z,10.30
2022-12-01T07:13:22.692Z,8.73
2022-12-01T07:16:24.969Z,9.88
2022-12-01T07:19:27.246Z,9.98
2022-12-01T07:22:32.818Z,10.63
2022-12-01T07:25:35.222Z,8.30
2022-12-01T07:28:37.381Z,8.82
2022-12-01T07:31:39.649Z,9.25
2022-12-01T07:34:41.872Z,8.63
2022-12-01T07:37:44.030Z,11.38
2022-12-01T07:40:46.183Z,9.48
2022-12-01T07:43:48.626Z,7.35
2022-12-01T07:46:50.800Z,5.75
2022-12-01T07:49:52.973Z,7.18
2022-12-01T07:52:55.108Z,5.60
2022-12-01T07:55:58.323Z,5.87
2022-12-01T07:59:00.539Z,5.85
2022-12-01T08:02:02.748Z,5.47
2022-12-01T08:05:05.321Z,5.35
2022-12-01T08:08:07.713Z,5.75
2022-12-01T08:11:16.173Z,4.68
2022-12-01T08:14:18.317Z,6.45
2022-12-01T08:17:20.752Z,6.37
2022-12-01T08:20:24.205Z,5.65
2022-12-01T08:23:26.493Z,6.35
2022-12-01T08:26:28.672Z,4.80
2022-12-01T08:29:30.838Z,6.37
2022-12-01T08:32:33.025Z,6.15
2022-12-01T08:35:36.937Z,5.07
2022-12-01T08:38:39.094Z,5.87
2022-12-01T08:41:41.305Z,6.43
2022-12-01T08:44:43.522Z,5.30
2022-12-01T08:47:45.668Z,6.47
2022-12-01T08:50:47.864Z,5.50
2022-12-01T08:53:50.513Z,6.28
2022-12-01T08:56:52.735Z,5.75
2022-12-01T08:59:54.899Z,6.87
2022-12-01T09:02:57.135Z,5.55
2022-12-01T09:06:23.941Z,4.30
2022-12-01T09:09:29.171Z,5.00
2022-12-01T09:12:31.375Z,5.60
2022-12-01T09:15:33.978Z,5.72
2022-12-01T09:18:36.239Z,4.65
2022-12-01T09:21:38.595Z,5.05
2022-12-01T09:24:40.799Z,3.83
2022-12-01T09:27:43.416Z,4.00
2022-12-01T09:30:46.775Z,4.95
2022-12-01T09:33:54.613Z,3.80
2022-12-01T09:36:58.330Z,5.32
2022-12-01T09:40:00.604Z,3.60
2022-12-01T09:43:05.782Z,5.25
2022-12-01T09:46:14.392Z,4.57
2022-12-01T09:49:25.273Z,4.60
2022-12-01T09:52:29.919Z,4.97
2022-12-01T09:55:32.218Z,6.55
2022-12-01T09:58:34.770Z,4.90
2022-12-01T10:01:38.642Z,4.68
2022-12-01T10:04:43.271Z,5.30
2022-12-01T10:07:49.359Z,4.57
2022-12-01T10:10:53.210Z,5.35
2022-12-01T10:13:55.408Z,4.75
2022-12-01T10:17:14.218Z,6.85
2022-12-01T10:20:44.650Z,15.07
2022-12-01T10:23:59.946Z,5.43
2022-12-01T10:27:22.451Z,4.90
2022-12-01T10:30:24.949Z,2.95
2022-12-01T10:33:34.642Z,4.30
2022-12-01T10:36:36.862Z,4.18
2022-12-01T10:39:41.957Z,4.25
2022-12-01T10:42:46.562Z,3.67
2022-12-01T10:45:48.849Z,4.00
2022-12-01T10:48:56.679Z,4.15
2022-12-01T10:51:58.871Z,3.55
2022-12-01T10:55:01.545Z,4.95
2022-12-01T10:58:16.358Z,4.30
2022-12-01T11:01:22.278Z,3.92
2022-12-01T11:04:46.069Z,3.53
2022-12-01T11:07:49.438Z,3.17
2022-12-01T11:10:52.210Z,3.60
2022-12-01T11:13:55.090Z,3.47
2022-12-01T11:16:57.316Z,6.22
2022-12-01T11:20:21.564Z,4.80
2022-12-01T11:23:26.679Z,3.80
2022-12-01T11:26:31.640Z,3.60
2022-12-01T11:29:38.322Z,4.40
2022-12-01T11:32:40.560Z,4.12
2022-12-01T11:35:47.571Z,3.72
2022-12-01T11:38:50.644Z,3.80
2022-12-01T11:41:57.750Z,7.72
2022-12-01T11:45:19.182Z,4.40
2022-12-01T11:48:25.882Z,3.65
2022-12-01T11:51:37.808Z,4.80
2022-12-01T11:54:55.547Z,4.90
2022-12-01T11:58:02.057Z,4.93
2022-12-01T12:01:06.173Z,3.90
2022-12-01T12:04:30.212Z,4.40
2022-12-01T12:07:54.159Z,3.78
2022-12-01T12:11:14.958Z,3.80
2022-12-01T12:14:26.085Z,2.67
2022-12-01T12:18:03.677Z,2.72
2022-12-01T12:21:17.814Z,1.73
2022-12-01T12:24:48.318Z,2.80
2022-12-01T12:28:24.781Z,2.28
2022-12-01T12:31:37.281Z,2.25
2022-12-01T12:35:09.829Z,2.45
2022-12-01T12:38:47.344Z,2.83
2022-12-01T12:41:53.078Z,2.00
2022-12-01T12:45:15.292Z,2.70
2022-12-01T12:49:18.199Z,2.75
2022-12-01T12:52:17.021Z,2.67
2022-12-01T12:55:33.364Z,2.03
2022-12-01T12:58:43.564Z,2.58
2022-12-01T13:02:02.206Z,3.47
2022-12-01T13:05:36.999Z,2.62
2022-12-01T13:08:48.288Z,4.45
2022-12-01T13:11:55.267Z,2.42
2022-12-01T13:15:20.997Z,3.05
2022-12-01T13:18:23.268Z,2.67
2022-12-01T13:21:34.462Z,2.80
2022-12-01T13:24:36.695Z,4.35
2022-12-01T13:27:41.282Z,2.70
2022-12-01T13:31:04.445Z,3.20
2022-12-01T13:34:06.683Z,4.62
2022-12-01T13:37:10.411Z,2.78
2022-12-01T13:40:21.242Z,2.92
2022-12-01T13:43:23.458Z,5.43
2022-12-01T13:46:30.280Z,3.85
2022-12-01T13:49:40.470Z,3.22
2022-12-01T13:52:49.555Z,3.47
2022-12-01T13:56:03.968Z,3.35
2022-12-01T13:59:39.026Z,2.78
2022-12-01T14:02:41.323Z,3.58
2022-12-01T14:06:07.946Z,3.22
2022-12-01T14:09:16.270Z,3.67
2022-12-01T14:12:25.831Z,3.10
2022-12-01T14:15:53.198Z,4.65
2022-12-01T14:18:57.192Z,6.75
2022-12-01T14:22:00.536Z,3.67
2022-12-01T14:25:06.246Z,6.87
2022-12-01T14:28:19.528Z,6.55
2022-12-01T14:31:33.940Z,5.45
2022-12-01T14:34:37.401Z,8.50
2022-12-01T14:37:43.362Z,5.20
2022-12-01T14:40:45.512Z,4.80
2022-12-01T14:44:04.017Z,4.47
2022-12-01T14:47:41.631Z,4.70
2022-12-01T14:50:53.666Z,4.43
2022-12-01T14:53:57.274Z,5.90
2022-12-01T14:57:06.273Z,13.40
2022-12-01T15:00:21.916Z,19.30
2022-12-01T15:03:30.500Z,19.35
2022-12-01T15:06:35.670Z,12.48
2022-12-01T15:10:02.030Z,12.57
2022-12-01T15:13:33.291Z,10.20
2022-12-01T15:16:40.950Z,12.18
2022-12-01T15:19:44.169Z,18.25
2022-12-01T15:22:46.419Z,22.60
2022-12-01T15:25:48.591Z,20.58
2022-12-01T15:28:51.391Z,36.70
2022-12-01T15:31:59.823Z,26.45
2022-12-01T15:35:04.608Z,22.37
2022-12-01T15:38:16.984Z,27.37
2022-12-01T15:41:28.964Z,33.88
2022-12-01T15:44:34.826Z,29.10
2022-12-01T15:47:43.565Z,45.10
2022-12-01T15:50:49.981Z,35.00
2022-12-01T15:53:58.907Z,30.50
2022-12-01T15:57:01.450Z,35.72
2022-12-01T16:00:04.169Z,28.70
2022-12-01T16:03:06.402Z,25.85
2022-12-01T16:06:12.116Z,22.13
2022-12-01T16:09:41.599Z,18.85
2022-12-01T16:12:43.918Z,18.58
2022-12-01T16:15:46.125Z,17.85
2022-12-01T16:19:10.249Z,19.42
2022-12-01T16:22:16.250Z,18.00
2022-12-01T16:25:27.272Z,18.12
2022-12-01T16:28:35.858Z,18.50
2022-12-01T16:31:58.694Z,23.52
2022-12-01T16:35:01.139Z,16.67
2022-12-01T16:38:20.688Z,75.30
2022-12-01T16:41:44.627Z,102.32
2022-12-01T16:44:48.152Z,55.22
2022-12-01T16:47:50.665Z,33.20
2022-12-01T16:50:53.554Z,24.77
2022-12-01T16:53:55.956Z,37.85
2022-12-01T16:56:58.269Z,31.00
2022-12-01T17:00:00.489Z,30.65
2022-12-01T17:03:04.443Z,38.17
2022-12-01T17:06:07.314Z,25.65
2022-12-01T17:09:09.567Z,32.88
2022-12-01T17:12:11.742Z,45.80
2022-12-01T17:15:15.162Z,60.63
2022-12-01T17:18:18.673Z,64.87
2022-12-01T17:21:21.098Z,52.15
2022-12-01T17:24:23.247Z,51.90
2022-12-01T17:27:27.713Z,28.90
2022-12-01T17:30:30.054Z,27.37
2022-12-01T17:33:32.972Z,22.20
2022-12-01T17:36:35.336Z,29.02
2022-12-01T17:39:37.790Z,28.58
2022-12-01T17:42:39.934Z,28.27
2022-12-01T17:45:43.124Z,29.77
2022-12-01T17:48:46.505Z,36.88
2022-12-01T17:51:48.740Z,34.50
2022-12-01T17:54:51.197Z,42.72
2022-12-01T17:57:53.888Z,40.67
2022-12-01T18:00:56.148Z,37.42
2022-12-01T18:03:59.071Z,32.88
2022-12-01T18:07:01.816Z,25.10
2022-12-01T18:10:04.622Z,23.52
2022-12-01T18:13:06.834Z,27.40
2022-12-01T18:16:10.766Z,23.20
2022-12-01T18:19:13.286Z,23.42
2022-12-01T18:22:15.687Z,23.70
2022-12-01T18:25:18.092Z,24.75
2022-12-01T18:28:20.324Z,26.70
2022-12-01T18:31:23.478Z,22.08
2022-12-01T18:34:29.385Z,21.58
2022-12-01T18:37:31.857Z,19.70
2022-12-01T18:40:37.101Z,22.25
2022-12-01T18:43:39.379Z,17.05
2022-12-01T18:46:41.931Z,19.25
2022-12-01T18:49:44.464Z,22.65
2022-12-01T18:52:46.873Z,21.60
2022-12-01T18:55:49.299Z,21.00
2022-12-01T18:59:00.838Z,19.20
2022-12-01T19:02:04.432Z,19.52
2022-12-01T19:05:08.458Z,18.40
2022-12-01T19:08:11.637Z,18.98
2022-12-01T19:11:14.875Z,17.58
2022-12-01T19:14:18.653Z,14.07
2022-12-01T19:17:21.087Z,12.73
2022-12-01T19:20:24.619Z,12.50
2022-12-01T19:23:27.282Z,10.75
2022-12-01T19:26:30.114Z,16.27
2022-12-01T19:29:32.703Z,10.00
2022-12-01T19:32:34.962Z,8.60
2022-12-01T19:35:37.316Z,6.72
2022-12-01T19:38:40.140Z,6.43
2022-12-01T19:41:42.566Z,7.40
2022-12-01T19:44:45.479Z,6.30
2022-12-01T19:47:48.040Z,7.40
2022-12-01T19:50:50.446Z,7.37
2022-12-01T19:53:54.436Z,7.78
2022-12-01T19:56:57.400Z,6.47
2022-12-01T20:00:00.272Z,6.00
2022-12-01T20:03:04.044Z,5.18
2022-12-01T20:06:14.406Z,4.70
2022-12-01T20:09:16.913Z,4.75
2022-12-01T20:12:19.569Z,4.80
2022-12-01T20:15:21.890Z,4.20
2022-12-01T20:18:24.387Z,4.65
2022-12-01T20:21:30.351Z,5.07
2022-12-01T20:24:32.849Z,5.32
2022-12-01T20:27:35.880Z,4.90
2022-12-01T20:30:40.648Z,4.53
2022-12-01T20:33:43.396Z,6.72
2022-12-01T20:36:46.084Z,7.62
2022-12-01T20:39:48.281Z,7.62
2022-12-01T20:42:50.729Z,8.73
2022-12-01T20:45:53.235Z,6.35
2022-12-01T20:48:55.689Z,5.82
2022-12-01T20:51:58.108Z,4.10
2022-12-01T20:55:00.536Z,8.23
2022-12-01T20:58:05.401Z,7.60
2022-12-01T21:01:15.381Z,7.43
2022-12-01T21:04:17.895Z,7.30
2022-12-01T21:07:20.124Z,8.25
2022-12-01T21:10:22.485Z,7.55
2022-12-01T21:13:44.320Z,8.18
2022-12-01T21:16:49.237Z,7.53
2022-12-01T21:20:22.044Z,6.65
2022-12-01T21:23:24.601Z,5.95
2022-12-01T21:26:26.834Z,11.15
2022-12-01T21:29:43.927Z,7.25
2022-12-01T21:32:46.917Z,7.72
2022-12-01T21:35:52.751Z,6.57
2022-12-01T21:39:00.543Z,5.55
2022-12-01T21:42:14.389Z,5.90
2022-12-01T21:45:26.158Z,5.37
2022-12-01T21:48:35.432Z,5.35
2022-12-01T21:51:37.860Z,7.25
2022-12-01T21:54:40.084Z,5.80
2022-12-01T21:57:45.234Z,5.10
2022-12-01T22:00:47.448Z,6.50
2022-12-01T22:03:49.865Z,6.18
2022-12-01T22:06:53.862Z,4.37
2022-12-01T22:09:55.994Z,5.18
2022-12-01T22:12:58.158Z,7.12
2022-12-01T22:16:00.346Z,5.45
2022-12-01T22:19:14.687Z,7.00
2022-12-01T22:22:25.317Z,6.53
2022-12-01T22:25:28.438Z,5.67
2022-12-01T22:28:30.680Z,4.93
2022-12-01T22:31:34.315Z,6.85
2022-12-01T22:34:36.672Z,5.50
2022-12-01T22:37:44.432Z,6.75
2022-12-01T22:40:58.354Z,5.75
2022-12-01T22:44:01.449Z,6.15
2022-12-01T22:47:03.894Z,6.32
2022-12-01T22:50:25.806Z,7.07
2022-12-01T22:53:31.164Z,5.85
2022-12-01T22:57:15.468Z,6.50
2022-12-01T23:00:21.165Z,5.87
2022-12-01T23:03:23.407Z,7.75
2022-12-01T23:06:44.459Z,6.85
2022-12-01T23:09:46.628Z,5.85
2022-12-01T23:12:50.987Z,7.60
2022-12-01T23:15:54.091Z,7.05
2022-12-01T23:18:56.373Z,6.72
2022-12-01T23:21:58.531Z,5.87
2022-12-01T23:25:02.275Z,7.15
2022-12-01T23:28:06.617Z,6.95
2022-12-01T23:31:09.302Z,6.78
2022-12-01T23:34:14.435Z,7.20
2022-12-01T23:37:33.769Z,5.32
2022-12-01T23:40:36.343Z,6.57
2022-12-01T23:43:40.449Z,7.50
2022-12-01T23:46:42.888Z,6.57
2022-12-01T23:49:46.429Z,5.25
2022-12-01T23:52:49.026Z,6.18
2022-12-01T23:55:51.515Z,4.90
2022-12-01T23:58:54.807Z,6.22
